Time;durP1;ratioP1;P1;durP2;ratioP2;P2;SDS_P1;SDS_P2;PMS_P1;PMS_P2;Temp;Humidity;BMP_temperature;BMP_pressure;BME280_temperature;BME280_humidity;BME280_pressure;Samples;Min_cycle;Max_cycle;Signal;HPM_P1;HPM_P2
2023/09/13 00:01:49;;;;;;;8.63;2.35;;;;;;;;;;5092758;28;20079;-76
2023/09/13 00:04:15;;;;;;;11.57;2.15;;;19.80;99.90;;;;;;5092969;28;20098;-76
2023/09/13 00:06:41;;;;;;;17.63;3.03;;;19.10;99.90;;;;;;5102230;28;20031;-76
2023/09/13 00:09:08;;;;;;;7.25;2.17;;;19.70;99.90;;;;;;5106145;28;20039;-76
2023/09/13 00:11:35;;;;;;;8.98;2.17;;;17.40;99.90;;;;;;5106241;28;20040;-76
2023/09/13 00:14:01;;;;;;;16.58;2.30;;;19.40;99.90;;;;;;5087565;28;20040;-76
2023/09/13 00:16:27;;;;;;;11.18;2.08;;;;;;;;;;5073956;28;20381;-76
2023/09/13 00:18:53;;;;;;;13.68;2.40;;;19.40;99.90;;;;;;5091441;28;20052;-76
2023/09/13 00:21:20;;;;;;;12.57;2.58;;;19.60;99.90;;;;;;5069168;28;20181;-76
2023/09/13 00:23:46;;;;;;;9.70;2.70;;;19.20;99.90;;;;;;5101274;28;20044;-77
2023/09/13 00:26:14;;;;;;;12.98;2.78;;;19.20;99.90;;;;;;5098981;28;20040;-76
2023/09/13 00:28:39;;;;;;;9.48;2.22;;;17.90;99.90;;;;;;5092540;28;20131;-76
2023/09/13 00:31:09;;;;;;;13.82;2.60;;;18.60;99.90;;;;;;5091908;28;20127;-76
2023/09/13 00:33:35;;;;;;;9.15;2.33;;;17.40;99.90;;;;;;5078007;28;20129;-76
2023/09/13 00:36:01;;;;;;;15.23;2.28;;;;;;;;;;5098002;28;20036;-76
2023/09/13 00:38:28;;;;;;;7.50;2.28;;;;;;;;;;5093282;28;20455;-76
2023/09/13 00:40:54;;;;;;;15.38;2.60;;;17.70;99.90;;;;;;5091876;28;20048;-75
2023/09/13 00:43:20;;;;;;;9.35;2.15;;;19.20;99.90;;;;;;5091942;28;20051;-76
2023/09/13 00:45:48;;;;;;;13.52;2.40;;;18.40;99.90;;;;;;5075149;28;20500;-76
2023/09/13 00:48:14;;;;;;;7.18;2.10;;;17.10;99.90;;;;;;5074591;28;20392;-77
2023/09/13 00:50:41;;;;;;;7.78;2.40;;;18.40;99.90;;;;;;5091604;28;20040;-75
2023/09/13 00:53:09;;;;;;;11.40;2.20;;;17.20;99.90;;;;;;5091998;28;20044;-76
2023/09/13 00:55:35;;;;;;;10.07;2.45;;;17.20;99.90;;;;;;5074962;28;20484;-76
2023/09/13 00:58:04;;;;;;;7.53;2.40;;;18.30;99.90;;;;;;5075050;28;20126;-76
2023/09/13 01:00:30;;;;;;;11.52;2.40;;;18.90;99.90;;;;;;5074877;28;20059;-75
2023/09/13 01:02:56;;;;;;;10.10;2.50;;;17.20;99.90;;;;;;5075079;28;20552;-76
2023/09/13 01:05:22;;;;;;;9.25;2.60;;;17.20;99.90;;;;;;5077210;28;20131;-76
2023/09/13 01:07:48;;;;;;;7.40;2.10;;;18.30;99.90;;;;;;5095515;28;20123;-76
2023/09/13 01:10:14;;;;;;;15.02;2.55;;;18.40;99.90;;;;;;5078693;28;20032;-75
2023/09/13 01:12:40;;;;;;;12.05;2.20;;;17.40;99.90;;;;;;5078671;28;20047;-77
2023/09/13 01:15:07;;;;;;;7.20;2.28;;;17.60;99.90;;;;;;5078795;28;20032;-75
2023/09/13 01:17:34;;;;;;;12.43;2.38;;;;;;;;;;5095755;28;20083;-76
2023/09/13 01:20:20;;;;;;;5.00;2.20;;;18.90;99.90;;;;;;5095608;28;20403;-76
2023/09/13 01:23:15;;;;;;;6.10;1.90;;;17.20;99.90;;;;;;5095478;28;20040;-76
2023/09/13 01:26:01;;;;;;;4.50;1.73;;;18.70;99.90;;;;;;5095316;28;20122;-76
2023/09/13 01:28:40;;;;;;;9.68;2.33;;;17.50;99.90;;;;;;5095258;28;20048;-76
2023/09/13 01:31:08;;;;;;;8.25;2.00;;;16.90;99.90;;;;;;5095421;28;20047;-76
2023/09/13 01:33:34;;;;;;;6.22;1.80;;;19.20;99.90;;;;;;5095482;28;20382;-76
2023/09/13 01:36:00;;;;;;;4.53;1.60;;;17.10;99.90;;;;;;5078165;28;20173;-76
2023/09/13 01:38:26;;;;;;;7.70;1.88;;;16.90;99.90;;;;;;5078150;28;20040;-76
2023/09/13 01:41:08;;;;;;;7.15;2.03;;;18.90;99.90;;;;;;5078084;28;20395;-76
2023/09/13 01:43:34;;;;;;;;;;;18.10;99.90;;;;;;5096103;28;20125;-76
2023/09/13 01:46:01;;;;;;;4.93;1.85;;;18.00;99.90;;;;;;5094964;28;20411;-77
2023/09/13 01:48:29;;;;;;;8.10;1.90;;;19.10;99.90;;;;;;5094640;28;20052;-77
2023/09/13 01:50:56;;;;;;;7.90;1.80;;;17.80;99.90;;;;;;5094816;28;20040;-77
2023/09/13 01:53:21;;;;;;;6.90;1.95;;;17.00;99.90;;;;;;5061460;28;20036;-77
2023/09/13 01:55:47;;;;;;;6.82;1.70;;;;;;;;;;5095005;28;20384;-76
2023/09/13 01:58:13;;;;;;;5.25;1.60;;;17.10;99.90;;;;;;5094760;28;20059;-76
2023/09/13 02:00:40;;;;;;;6.57;1.70;;;18.30;99.90;;;;;;5094626;28;20051;-76
2023/09/13 02:03:06;;;;;;;4.47;1.70;;;16.90;99.90;;;;;;5094938;28;20048;-76
2023/09/13 02:05:32;;;;;;;10.15;1.80;;;18.10;99.90;;;;;;5094434;28;20135;-77
2023/09/13 02:07:57;;;;;;;5.03;1.42;;;18.90;99.90;;;;;;5094511;28;20080;-76
2023/09/13 02:10:23;;;;;;;7.75;1.83;;;17.10;99.90;;;;;;5094678;28;20040;-77
2023/09/13 02:12:49;;;;;;;5.20;1.80;;;17.10;99.90;;;;;;5094561;28;20458;-75
2023/09/13 02:15:15;;;;;;;7.95;1.90;;;;;;;;;;5094140;28;20047;-76
2023/09/13 02:17:41;;;;;;;9.10;1.75;;;17.90;99.90;;;;;;5077732;28;20051;-75
2023/09/13 02:20:11;;;;;;;4.63;1.50;;;17.60;99.90;;;;;;5077486;28;20051;-75
2023/09/13 02:22:37;;;;;;;7.60;1.98;;;16.60;99.90;;;;;;5094164;28;20606;-76
2023/09/13 02:25:04;;;;;;;4.88;1.83;;;;;;;;;;5077333;28;20043;-75
2023/09/13 02:27:32;;;;;;;12.38;2.35;;;17.60;99.90;;;;;;5060763;28;20530;-75
2023/09/13 02:29:58;;;;;;;9.32;2.30;;;17.20;99.90;;;;;;5077814;28;20043;-75
2023/09/13 02:32:24;;;;;;;8.55;2.38;;;17.60;99.90;;;;;;5077453;28;20364;-74
2023/09/13 02:34:50;;;;;;;7.82;1.90;;;18.40;99.90;;;;;;5094005;28;20480;-75
2023/09/13 02:37:16;;;;;;;8.80;2.30;;;;;;;;;;5093919;28;20117;-75
2023/09/13 02:39:42;;;;;;;9.80;2.30;;;16.60;99.90;;;;;;5060567;28;20047;-75
2023/09/13 02:42:08;;;;;;;4.57;2.00;;;16.40;99.90;;;;;;5094460;28;20051;-75
2023/09/13 02:44:35;;;;;;;5.80;2.05;;;16.60;99.90;;;;;;5060266;28;20484;-75
2023/09/13 02:47:01;;;;;;;10.15;2.42;;;18.10;99.90;;;;;;5076873;28;20044;-75
2023/09/13 02:49:27;;;;;;;7.88;2.17;;;17.80;99.90;;;;;;5076865;28;20442;-74
2023/09/13 02:51:54;;;;;;;7.18;2.30;;;16.00;99.90;;;;;;5093903;28;20043;-74
2023/09/13 02:54:20;;;;;;;9.07;2.45;;;16.20;99.90;;;;;;5093845;28;20478;-74
2023/09/13 02:56:49;;;;;;;9.25;2.83;;;17.60;99.90;;;;;;5093673;28;20043;-74
2023/09/13 02:59:15;;;;;;;10.88;2.65;;;;;;;;;;5093430;28;20488;-74
2023/09/13 03:01:42;;;;;;;7.78;2.47;;;17.20;99.90;;;;;;5093339;28;20434;-74
2023/09/13 03:04:08;;;;;;;8.95;2.58;;;;;;;;;;5076592;28;20032;-74
2023/09/13 03:06:34;;;;;;;9.77;2.13;;;15.90;99.90;;;;;;5076643;28;20036;-74
2023/09/13 03:09:00;;;;;;;12.48;2.50;;;16.20;99.90;;;;;;5093228;28;20472;-75
2023/09/13 03:11:26;;;;;;;6.50;2.00;;;;;;;;;;5093537;28;20036;-74
2023/09/13 03:13:53;;;;;;;10.75;3.28;;;17.10;99.90;;;;;;5093000;28;20046;-75
2023/09/13 03:16:20;;;;;;;7.15;1.98;;;17.40;99.90;;;;;;5093101;28;20040;-74
2023/09/13 03:18:48;;;;;;;9.70;2.08;;;17.60;99.90;;;;;;5092987;28;20082;-75
2023/09/13 03:21:15;;;;;;;7.55;2.00;;;17.50;99.90;;;;;;5093257;28;20047;-74
2023/09/13 03:23:42;;;;;;;7.82;2.10;;;15.80;99.90;;;;;;5076122;28;20500;-74
2023/09/13 03:26:22;;;;;;;11.43;2.00;;;16.80;99.90;;;;;;5075902;28;20126;-74
2023/09/13 03:28:53;;;;;;;8.73;2.10;;;16.60;99.90;;;;;;5092382;28;20079;-74
2023/09/13 03:31:22;;;;;;;11.93;2.05;;;15.60;99.90;;;;;;5092823;28;20036;-74
2023/09/13 03:33:49;;;;;;;6.25;1.98;;;16.40;99.90;;;;;;5093104;28;20098;-74
2023/09/13 03:36:16;;;;;;;7.35;2.28;;;;;;;;;;5092665;28;20072;-74
2023/09/13 03:38:43;;;;;;;6.35;1.98;;;16.90;99.90;;;;;;5093231;28;20123;-74
2023/09/13 03:41:11;;;;;;;8.93;2.10;;;17.10;99.90;;;;;;5092746;28;20048;-74
2023/09/13 03:43:37;;;;;;;9.15;2.15;;;17.50;99.90;;;;;;5093168;28;20036;-74
2023/09/13 03:46:04;;;;;;;6.85;2.33;;;17.70;99.90;;;;;;5092898;28;20050;-74
2023/09/13 03:48:31;;;;;;;9.38;2.13;;;17.10;99.90;;;;;;5114196;28;20043;-74
2023/09/13 03:50:57;;;;;;;7.45;2.28;;;17.10;99.90;;;;;;5090076;28;20077;-74
2023/09/13 03:53:24;;;;;;;9.82;2.28;;;15.50;99.90;;;;;;5113690;28;20040;-74
2023/09/13 03:55:50;;;;;;;9.18;1.98;;;17.30;99.90;;;;;;5112418;28;20035;-74
2023/09/13 03:58:16;;;;;;;15.52;2.38;;;;;;;;;;5112477;28;20040;-75
2023/09/13 04:00:42;;;;;;;14.60;2.53;;;17.50;99.90;;;;;;5109534;28;20043;-75
2023/09/13 04:03:08;;;;;;;9.20;1.98;;;15.60;99.90;;;;;;5108783;28;20044;-74
2023/09/13 04:05:34;;;;;;;10.25;2.33;;;;;;;;;;5082986;28;20050;-73
2023/09/13 04:08:00;;;;;;;11.57;2.22;;;;;;;;;;5081204;28;20046;-73
2023/09/13 04:10:26;;;;;;;14.15;2.92;;;;;;;;;;5102569;28;20043;-73
2023/09/13 04:12:52;;;;;;;10.90;2.63;;;17.40;99.90;;;;;;5102400;28;20040;-73
2023/09/13 04:15:18;;;;;;;9.90;3.00;;;;;;;;;;5097439;28;20043;-74
2023/09/13 04:17:44;;;;;;;12.40;2.85;;;;;;;;;;5079218;28;20040;-74
2023/09/13 04:20:11;;;;;;;10.88;2.45;;;;;;;;;;5095349;28;20514;-74
2023/09/13 04:22:36;;;;;;;13.40;2.97;;;16.20;99.90;;;;;;5095321;28;20092;-75
2023/09/13 04:25:05;;;;;;;11.13;2.53;;;16.10;99.90;;;;;;5114014;28;20039;-69
2023/09/13 04:27:31;;;;;;;11.25;2.60;;;;;;;;;;5095324;28;20076;-69
2023/09/13 04:29:57;;;;;;;12.70;3.00;;;16.50;99.90;;;;;;5095492;28;20043;-68
2023/09/13 04:32:24;;;;;;;13.80;3.00;;;;;;;;;;5078327;28;20040;-69
2023/09/13 04:34:50;;;;;;;18.00;3.67;;;16.00;99.90;;;;;;5095080;28;20032;-69
2023/09/13 04:37:16;;;;;;;16.13;3.58;;;14.80;99.90;;;;;;5095154;28;20043;-69
2023/09/13 04:39:42;;;;;;;14.98;3.10;;;;;;;;;;5095405;28;20084;-69
2023/09/13 04:42:08;;;;;;;12.10;2.90;;;;;;;;;;5095411;28;20043;-69
2023/09/13 04:44:34;;;;;;;10.35;2.70;;;;;;;;;;5095422;28;20089;-68
2023/09/13 04:47:00;;;;;;;12.60;2.90;;;;;;;;;;5094985;28;20052;-74
2023/09/13 04:49:27;;;;;;;11.70;3.35;;;;;;;;;;5095560;28;20422;-74
2023/09/13 04:51:53;;;;;;;12.35;3.42;;;;;;;;;;5095105;28;20036;-74
2023/09/13 04:54:22;;;;;;;8.50;2.58;;;16.60;99.90;;;;;;5095119;28;20039;-74
2023/09/13 04:56:51;;;;;;;17.98;2.95;;;15.30;99.90;;;;;;5094985;28;20040;-74
2023/09/13 04:59:17;;;;;;;20.63;3.45;;;;;;;;;;5078150;28;20039;-74
2023/09/13 05:01:44;;;;;;;13.02;2.88;;;;;;;;;;5095179;28;20035;-74
2023/09/13 05:04:10;;;;;;;12.60;3.40;;;;;;;;;;5078537;28;20086;-74
2023/09/13 05:06:36;;;;;;;16.63;3.45;;;14.20;99.90;;;;;;5095152;28;20081;-74
2023/09/13 05:09:02;;;;;;;22.80;3.10;;;;;;;;;;5095129;28;20031;-74
2023/09/13 05:11:28;;;;;;;16.17;3.55;;;;;;;;;;5095228;28;20380;-74
2023/09/13 05:14:13;;;;;;;23.35;3.70;;;15.20;99.90;;;;;;5094730;28;20047;-74
2023/09/13 05:16:39;;;;;;;12.63;3.38;;;;;;;;;;5094835;28;20458;-74
2023/09/13 05:19:05;;;;;;;16.45;4.38;;;16.10;99.90;;;;;;5095191;28;20079;-74
2023/09/13 05:21:31;;;;;;;13.60;4.45;;;;;;;;;;5094974;28;20435;-68
2023/09/13 05:23:57;;;;;;;13.52;3.60;;;;;;;;;;5095343;28;20035;-68
2023/09/13 05:26:23;;;;;;;13.88;3.67;;;;;;;;;;5094920;28;20070;-68
2023/09/13 05:28:49;;;;;;;13.77;4.45;;;15.70;99.90;;;;;;5094881;28;20052;-68
2023/09/13 05:31:14;;;;;;;16.77;4.40;;;14.70;99.90;;;;;;5094821;28;20555;-68
2023/09/13 05:33:41;;;;;;;13.40;3.80;;;;;;;;;;5078028;28;20115;-68
2023/09/13 05:36:08;;;;;;;15.18;3.78;;;15.00;99.90;;;;;;5094818;28;20036;-68
2023/09/13 05:38:34;;;;;;;11.10;2.85;;;;;;;;;;5095058;28;20039;-69
2023/09/13 05:41:07;;;;;;;15.02;3.17;;;14.80;99.90;;;;;;5095021;28;20043;-68
2023/09/13 05:43:37;;;;;;;17.80;3.35;;;14.70;99.90;;;;;;5094757;28;20039;-68
2023/09/13 05:46:03;;;;;;;13.38;2.80;;;15.80;99.90;;;;;;5094730;28;20048;-68
2023/09/13 05:48:28;;;;;;;15.55;2.70;;;16.00;99.90;;;;;;5094588;28;20051;-69
2023/09/13 05:50:55;;;;;;;12.18;2.80;;;;;;;;;;5096495;28;20114;-69
2023/09/13 05:53:21;;;;;;;10.15;2.70;;;;;;;;;;5098963;28;20360;-68
2023/09/13 05:55:47;;;;;;;10.90;2.95;;;15.50;99.90;;;;;;5098518;28;20043;-75
2023/09/13 05:58:13;;;;;;;7.95;2.30;;;13.80;99.90;;;;;;5098248;28;20050;-74
2023/09/13 06:00:41;;;;;;;12.18;2.58;;;14.50;99.90;;;;;;5081554;28;20043;-75
2023/09/13 06:03:07;;;;;;;10.40;2.10;;;;;;;;;;5098199;28;20039;-74
2023/09/13 06:05:34;;;;;;;8.57;2.33;;;16.00;99.90;;;;;;5098362;28;20040;-75
2023/09/13 06:08:00;;;;;;;7.68;2.25;;;;;;;;;;5098492;28;20046;-75
2023/09/13 06:10:26;;;;;;;5.75;2.10;;;;;;;;;;5116497;28;20032;-75
2023/09/13 06:12:52;;;;;;;13.80;3.10;;;;;;;;;;5098616;28;20040;-75
2023/09/13 06:15:18;;;;;;;11.23;2.42;;;;;;;;;;5098446;28;20471;-75
2023/09/13 06:17:44;;;;;;;7.38;2.33;;;15.50;99.90;;;;;;5098062;28;20054;-75
2023/09/13 06:20:10;;;;;;;9.38;2.10;;;16.00;99.90;;;;;;5098377;28;20126;-75
2023/09/13 06:22:36;;;;;;;9.77;2.33;;;13.80;99.90;;;;;;5081470;28;20134;-74
2023/09/13 06:25:03;;;;;;;8.88;2.08;;;16.00;99.90;;;;;;5098001;28;20461;-74
2023/09/13 06:27:29;;;;;;;9.20;2.08;;;;;;;;;;5080717;28;20040;-74
2023/09/13 06:29:55;;;;;;;3.70;1.88;;;15.40;99.90;;;;;;5081041;28;20039;-74
2023/09/13 06:32:21;;;;;;;9.80;2.20;;;;;;;;;;5080846;28;20036;-68
2023/09/13 06:34:47;;;;;;;14.07;2.40;;;15.60;99.90;;;;;;5080950;28;20038;-68
2023/09/13 06:37:13;;;;;;;11.43;2.53;;;15.70;99.90;;;;;;5097516;28;20044;-68
2023/09/13 06:39:39;;;;;;;14.23;2.40;;;;;;;;;;5097953;28;20044;-68
2023/09/13 06:42:06;;;;;;;9.52;2.30;;;15.30;99.90;;;;;;5097628;28;20047;-68
2023/09/13 06:44:32;;;;;;;12.95;2.20;;;;;;;;;;5097561;28;20047;-68
2023/09/13 06:46:58;;;;;;;12.48;2.13;;;15.90;99.90;;;;;;5080315;28;20056;-68
2023/09/13 06:49:24;;;;;;;9.52;1.95;;;16.00;99.90;;;;;;5080872;28;20051;-68
2023/09/13 06:51:51;;;;;;;8.52;2.45;;;;;;;;;;5097516;28;20400;-68
2023/09/13 06:54:18;;;;;;;9.85;2.70;;;15.10;99.90;;;;;;5097643;28;20046;-68
2023/09/13 06:56:44;;;;;;;6.65;1.83;;;;;;;;;;5097569;28;20116;-68
2023/09/13 06:59:10;;;;;;;7.25;1.95;;;16.00;99.90;;;;;;5115794;28;20043;-68
2023/09/13 07:01:37;;;;;;;9.23;2.05;;;;;;;;;;5096446;28;20086;-69
2023/09/13 07:04:03;;;;;;;10.10;1.85;;;;;;;;;;5097137;28;20039;-68
2023/09/13 07:06:29;;;;;;;8.18;1.70;;;;;;;;;;5097342;28;20039;-68
2023/09/13 07:08:55;;;;;;;9.80;1.90;;;;;;;;;;5097389;28;20039;-73
2023/09/13 07:11:22;;;;;;;9.35;1.80;;;15.20;99.90;;;;;;5097445;28;20043;-73
2023/09/13 07:13:49;;;;;;;8.18;1.80;;;;;;;;;;5097572;28;20044;-73
2023/09/13 07:16:15;;;;;;;7.10;1.80;;;;;;;;;;5097386;28;20035;-73
2023/09/13 07:18:41;;;;;;;9.38;2.30;;;;;;;;;;5097719;28;20047;-73
2023/09/13 07:21:07;;;;;;;7.28;1.67;;;;;;;;;;5080531;28;20051;-73
2023/09/13 07:23:33;;;;;;;7.18;1.80;;;15.30;99.90;;;;;;5097955;28;20349;-74
2023/09/13 07:25:59;;;;;;;8.88;2.70;;;15.00;99.90;;;;;;5097121;28;20050;-73
2023/09/13 07:28:26;;;;;;;7.57;1.88;;;15.20;99.90;;;;;;5080993;28;20044;-73
2023/09/13 07:30:51;;;;;;;7.18;1.67;;;14.20;99.90;;;;;;5098244;28;20036;-74
2023/09/13 07:33:18;;;;;;;8.15;1.70;;;;;;;;;;5099903;28;20096;-74
2023/09/13 07:35:44;;;;;;;7.45;1.85;;;15.40;99.90;;;;;;5093750;28;20046;-74
2023/09/13 07:38:10;;;;;;;7.88;2.03;;;;;;;;;;5113685;28;20036;-68
2023/09/13 07:40:40;;;;;;;11.75;2.10;;;16.40;99.90;;;;;;5109818;28;20063;-68
2023/09/13 07:43:07;;;;;;;11.18;2.25;;;15.50;99.90;;;;;;5105423;28;20042;-68
2023/09/13 07:45:34;;;;;;;15.35;3.00;;;16.40;99.90;;;;;;5097107;28;20046;-68
2023/09/13 07:48:02;;;;;;;10.05;2.45;;;15.80;99.90;;;;;;5096534;28;20056;-68
2023/09/13 07:50:38;;;;;;;12.45;2.70;;;15.40;99.90;;;;;;5080556;28;20391;-68
2023/09/13 07:53:04;;;;;;;12.82;3.25;;;15.30;99.90;;;;;;5096381;28;20078;-68
2023/09/13 07:55:30;;;;;;;15.82;3.53;;;;;;;;;;5095859;28;20051;-68
2023/09/13 07:57:57;;;;;;;12.30;3.22;;;;;;;;;;5096000;28;20043;-68
2023/09/13 08:00:22;;;;;;;18.08;3.45;;;15.10;99.90;;;;;;5079015;28;20057;-68
2023/09/13 08:02:48;;;;;;;12.80;3.08;;;14.20;99.90;;;;;;5095820;28;20040;-68
2023/09/13 08:05:15;;;;;;;22.40;3.67;;;14.10;99.90;;;;;;5095755;28;20483;-68
2023/09/13 08:07:42;;;;;;;18.35;4.10;;;;;;;;;;5095505;28;20077;-68
2023/09/13 08:10:08;;;;;;;21.50;3.10;;;;;;;;;;5095927;28;20028;-68
2023/09/13 08:12:34;;;;;;;16.08;3.38;;;;;;;;;;5095765;28;20039;-69
2023/09/13 08:15:00;;;;;;;8.30;3.00;;;;;;;;;;5095292;28;20051;-68
2023/09/13 08:17:26;;;;;;;15.65;3.53;;;;;;;;;;5095599;28;20185;-69
2023/09/13 08:19:52;;;;;;;14.27;3.67;;;;;;;;;;5079035;28;20398;-68
2023/09/13 08:22:18;;;;;;;13.18;3.55;;;14.20;99.90;;;;;;5095697;28;20196;-68
2023/09/13 08:24:44;;;;;;;16.20;3.72;;;;;;;;;;5062030;28;20505;-68
2023/09/13 08:27:10;;;;;;;14.02;3.67;;;;;;;;;;5095336;28;20079;-68
2023/09/13 08:29:37;;;;;;;19.42;4.10;;;;;;;;;;5079321;28;20050;-74
2023/09/13 08:32:03;;;;;;;14.57;3.30;;;;;;;;;;5095694;28;20146;-75
2023/09/13 08:34:29;;;;;;;16.25;3.05;;;;;;;;;;5078950;28;20039;-74
2023/09/13 08:36:57;;;;;;;15.20;2.97;;;;;;;;;;5095259;28;20069;-74
2023/09/13 08:39:23;;;;;;;13.02;3.00;;;14.60;99.90;;;;;;5095491;28;20043;-74
2023/09/13 08:41:53;;;;;;;11.75;2.90;;;15.10;99.90;;;;;;5078516;28;20394;-74
2023/09/13 08:44:20;;;;;;;12.90;3.08;;;16.10;99.90;;;;;;5095219;28;20040;-74
2023/09/13 08:46:55;;;;;;;12.90;3.83;;;15.80;99.90;;;;;;5078608;28;20051;-74
2023/09/13 08:49:21;;;;;;;12.15;3.40;;;14.40;99.90;;;;;;5095482;28;20079;-74
2023/09/13 08:51:48;;;;;;;18.23;4.88;;;;;;;;;;5095170;28;20487;-74
2023/09/13 08:54:15;;;;;;;13.50;4.28;;;15.40;99.90;;;;;;5095311;28;20122;-74
2023/09/13 08:56:45;;;;;;;12.68;3.80;;;16.10;99.90;;;;;;5095564;28;20044;-73
2023/09/13 08:59:15;;;;;;;11.63;3.80;;;15.00;99.90;;;;;;5078993;28;20040;-74
2023/09/13 09:01:47;;;;;;;18.70;3.92;;;15.00;99.90;;;;;;5078576;28;20403;-74
2023/09/13 09:04:14;;;;;;;15.57;3.80;;;14.10;99.90;;;;;;5095523;28;20062;-74
2023/09/13 09:06:41;;;;;;;12.07;4.22;;;15.00;99.90;;;;;;5095069;28;20484;-74
2023/09/13 09:09:07;;;;;;;10.18;3.42;;;14.80;99.90;;;;;;5078214;28;20082;-74
2023/09/13 09:11:35;;;;;;;9.60;3.47;;;15.20;99.90;;;;;;5095365;28;20418;-74
2023/09/13 09:14:02;;;;;;;9.13;3.35;;;14.50;99.90;;;;;;5095176;28;20500;-74
2023/09/13 09:16:34;;;;;;;11.65;3.60;;;15.30;99.90;;;;;;5078325;28;20040;-74
2023/09/13 09:19:01;;;;;;;8.02;3.38;;;15.40;99.90;;;;;;5095253;28;20051;-74
2023/09/13 09:21:29;;;;;;;4.85;2.70;;;15.20;99.90;;;;;;5095297;28;20136;-74
2023/09/13 09:23:56;;;;;;;7.75;3.45;;;;;;;;;;5095222;28;20062;-74
2023/09/13 09:26:22;;;;;;;12.50;3.70;;;16.30;99.90;;;;;;5097461;28;20050;-74
2023/09/13 09:28:48;;;;;;;10.55;3.40;;;;;;;;;;5098942;28;20040;-75
2023/09/13 09:31:16;;;;;;;8.70;3.42;;;15.70;99.90;;;;;;5082156;28;20093;-75
2023/09/13 09:33:42;;;;;;;11.05;3.47;;;;;;;;;;5098633;28;20043;-74
2023/09/13 09:36:10;;;;;;;8.75;3.30;;;15.20;99.90;;;;;;5081736;28;20035;-75
2023/09/13 09:38:36;;;;;;;6.65;3.30;;;;;;;;;;5098666;28;20403;-74
2023/09/13 09:41:03;;;;;;;13.10;3.53;;;;;;;;;;5081686;28;20044;-74
2023/09/13 09:43:30;;;;;;;7.03;3.55;;;16.90;99.90;;;;;;5098838;28;20065;-75
2023/09/13 09:45:56;;;;;;;12.25;4.07;;;16.40;99.90;;;;;;5116742;28;20499;-75
2023/09/13 09:48:22;;;;;;;7.18;4.03;;;;;;;;;;5094801;28;20510;-75
2023/09/13 09:50:52;;;;;;;11.52;4.38;;;16.50;99.90;;;;;;5095369;28;20067;-75
2023/09/13 09:53:20;;;;;;;8.35;4.10;;;16.80;99.90;;;;;;5094892;28;20404;-68
2023/09/13 09:55:46;;;;;;;8.38;3.95;;;;;;;;;;5095044;28;20040;-68
2023/09/13 09:58:12;;;;;;;9.02;3.80;;;17.10;99.90;;;;;;5095219;28;20032;-68
2023/09/13 10:00:53;;;;;;;8.63;3.83;;;16.30;99.90;;;;;;5061334;28;20051;-68
2023/09/13 10:03:21;;;;;;;11.55;3.65;;;17.60;99.90;;;;;;5094780;28;20044;-68
2023/09/13 10:05:59;;;;;;;12.70;3.28;;;17.10;99.90;;;;;;5094778;28;20059;-68
2023/09/13 10:08:41;;;;;;;11.13;3.83;;;17.40;99.90;;;;;;5094436;28;20051;-69
2023/09/13 10:11:08;;;;;;;11.80;3.47;;;17.50;99.90;;;;;;5094913;28;20079;-70
2023/09/13 10:13:35;;;;;;;8.40;3.28;;;17.50;99.90;;;;;;5094827;28;20033;-75
2023/09/13 10:16:02;;;;;;;9.75;3.10;;;;;;;;;;5077500;28;20040;-75
2023/09/13 10:18:35;;;;;;;8.80;3.20;;;17.20;99.90;;;;;;5077773;28;20036;-76
2023/09/13 10:21:03;;;;;;;12.00;3.25;;;17.20;99.90;;;;;;5094308;28;20446;-75
2023/09/13 10:23:44;;;;;;;10.43;3.20;;;16.50;99.90;;;;;;5094451;28;20109;-75
2023/09/13 10:26:13;;;;;;;9.00;3.20;;;17.00;99.90;;;;;;5094813;28;20087;-75
2023/09/13 10:28:43;;;;;;;11.02;3.17;;;16.40;99.90;;;;;;5077968;28;20119;-75
2023/09/13 10:31:19;;;;;;;9.50;2.97;;;17.50;99.90;;;;;;5094239;28;20510;-75
2023/09/13 10:33:51;;;;;;;10.85;3.00;;;18.30;99.90;;;;;;5094270;28;20101;-75
2023/09/13 10:36:27;;;;;;;10.25;2.40;;;17.20;99.90;;;;;;5093704;28;20044;-76
2023/09/13 10:39:25;;;;;;;12.35;2.83;;;17.70;99.90;;;;;;5094243;28;20044;-75
2023/09/13 10:42:04;;;;;;;9.10;2.63;;;18.70;99.90;;;;;;5058671;28;20422;-76
2023/09/13 10:44:30;;;;;;;6.40;2.13;;;18.60;99.90;;;;;;5061807;28;20048;-76
2023/09/13 10:46:56;;;;;;;9.65;2.60;;;;;;;;;;5060379;28;20102;-75
2023/09/13 10:49:24;;;;;;;12.50;2.50;;;17.70;99.90;;;;;;5077561;28;20056;-76
2023/09/13 10:51:50;;;;;;;8.95;2.88;;;18.60;99.90;;;;;;5077807;28;20412;-76
2023/09/13 10:54:16;;;;;;;9.75;2.78;;;;;;;;;;5077379;28;20036;-75
2023/09/13 10:56:43;;;;;;;9.00;2.10;;;17.40;99.90;;;;;;5093730;28;20032;-75
2023/09/13 10:59:14;;;;;;;14.30;2.67;;;17.70;99.90;;;;;;5093891;28;20048;-76
2023/09/13 11:01:46;;;;;;;11.77;4.00;;;18.50;99.90;;;;;;5093688;28;20496;-75
2023/09/13 11:04:13;;;;;;;10.33;2.27;;;17.80;99.90;;;;;;5093698;28;20050;-75
2023/09/13 11:06:40;;;;;;;8.40;2.42;;;18.70;99.90;;;;;;5076838;28;20075;-75
2023/09/13 11:09:30;;;;;;;7.88;2.10;;;18.00;99.90;;;;;;5093606;28;20035;-76
2023/09/13 11:11:58;;;;;;;12.55;2.75;;;18.20;99.90;;;;;;5076948;28;20131;-76
2023/09/13 11:14:24;;;;;;;10.38;2.50;;;17.90;99.90;;;;;;5076722;28;20044;-77
2023/09/13 11:16:50;;;;;;;6.35;2.20;;;18.80;99.90;;;;;;5093960;28;20044;-76
2023/09/13 11:19:16;;;;;;;7.57;1.90;;;;;;;;;;5110174;28;20043;-76
2023/09/13 11:21:51;;;;;;;11.15;2.72;;;18.80;99.90;;;;;;5113564;28;20040;-76
2023/09/13 11:24:36;;;;;;;7.22;2.22;;;17.80;99.90;;;;;;5109280;28;20054;-76
2023/09/13 11:27:13;;;;;;;13.38;2.30;;;18.50;99.90;;;;;;5097479;28;20040;-75
2023/09/13 11:29:42;;;;;;;6.68;1.80;;;17.70;99.90;;;;;;5097154;28;20503;-75
2023/09/13 11:32:14;;;;;;;13.43;3.40;;;18.00;99.90;;;;;;5097027;28;20396;-76
2023/09/13 11:34:40;;;;;;;11.05;2.13;;;17.50;99.90;;;;;;5113027;28;20054;-75
2023/09/13 11:37:10;;;;;;;7.15;1.83;;;18.20;99.90;;;;;;5101796;28;20040;-76
2023/09/13 11:39:36;;;;;;;6.15;2.22;;;18.80;99.00;;;;;;5097802;28;20070;-76
2023/09/13 11:42:09;;;;;;;8.48;2.42;;;18.70;98.70;;;;;;5094641;28;20040;-76
2023/09/13 11:44:36;;;;;;;12.88;2.42;;;18.50;98.60;;;;;;5094184;28;20040;-76
2023/09/13 11:47:02;;;;;;;6.13;2.10;;;17.80;99.90;;;;;;5093883;28;20055;-76
2023/09/13 11:49:28;;;;;;;10.40;2.03;;;18.10;99.90;;;;;;5092710;28;20130;-75
2023/09/13 11:51:57;;;;;;;6.63;1.90;;;18.50;99.90;;;;;;5076294;28;20484;-76
2023/09/13 11:54:24;;;;;;;10.60;2.17;;;18.30;99.80;;;;;;5075748;28;20549;-76
2023/09/13 11:56:52;;;;;;;9.82;2.25;;;18.20;99.90;;;;;;5076171;28;20062;-76
2023/09/13 11:59:24;;;;;;;17.60;2.55;;;18.60;99.90;;;;;;5092822;28;20074;-70
2023/09/13 12:01:50;;;;;;;13.25;2.22;;;18.30;99.80;;;;;;5076018;28;20051;-70
2023/09/13 12:04:16;;;;;;;9.27;2.05;;;19.20;99.90;;;;;;5075993;28;20124;-70
2023/09/13 12:06:47;;;;;;;8.35;2.05;;;18.10;99.10;;;;;;5092696;28;20079;-70
2023/09/13 12:09:16;;;;;;;10.95;2.22;;;16.90;99.90;;;;;;5093909;28;20043;-71
2023/09/13 12:11:43;;;;;;;7.53;2.50;;;17.60;99.90;;;;;;5092928;28;20383;-76
2023/09/13 12:14:09;;;;;;;12.80;2.67;;;;;;;;;;5092467;28;20123;-76
2023/09/13 12:16:39;;;;;;;3.97;1.42;;;17.70;99.40;;;;;;5075698;28;20043;-76
2023/09/13 12:19:06;;;;;;;7.15;1.85;;;17.90;99.80;;;;;;5092710;28;20154;-76
2023/09/13 12:21:32;;;;;;;8.90;1.80;;;;;;;;;;5075723;28;20446;-77
2023/09/13 12:23:58;;;;;;;7.22;1.60;;;18.00;99.90;;;;;;5075492;28;20526;-77
2023/09/13 12:26:24;;;;;;;6.38;1.75;;;19.20;99.90;;;;;;5092282;28;20048;-77
2023/09/13 12:28:50;;;;;;;6.53;1.52;;;19.30;99.90;;;;;;5092288;28;20052;-77
2023/09/13 12:31:16;;;;;;;7.00;1.90;;;18.40;99.20;;;;;;5092393;28;20446;-76
2023/09/13 12:33:45;;;;;;;11.38;1.70;;;18.40;99.10;;;;;;5075717;28;20057;-76
2023/09/13 12:36:11;;;;;;;7.43;1.88;;;17.30;99.30;;;;;;5092124;28;20078;-75
2023/09/13 12:38:43;;;;;;;11.02;2.97;;;18.20;99.90;;;;;;5093458;28;20055;-76
2023/09/13 12:41:29;;;;;;;9.73;2.00;;;18.30;99.90;;;;;;5075313;28;20484;-75
2023/09/13 12:43:55;;;;;;;11.10;2.30;;;17.10;99.90;;;;;;5092433;28;20040;-70
2023/09/13 12:46:23;;;;;;;8.50;2.20;;;16.00;99.90;;;;;;5094173;28;20059;-70
2023/09/13 12:48:50;;;;;;;7.93;1.92;;;17.90;99.90;;;;;;5095405;28;20108;-70
2023/09/13 12:51:21;;;;;;;8.57;1.95;;;17.70;99.90;;;;;;5078833;28;20043;-70
2023/09/13 12:53:47;;;;;;;8.65;2.10;;;;;;;;;;5078453;28;20484;-70
2023/09/13 12:56:14;;;;;;;9.27;2.08;;;;;;;;;;5078503;28;20039;-70
2023/09/13 12:58:56;;;;;;;9.27;2.00;;;17.60;99.90;;;;;;5079030;28;20059;-70
2023/09/13 13:01:26;;;;;;;6.22;1.40;;;17.20;99.90;;;;;;5099568;28;20039;-70
2023/09/13 13:04:03;;;;;;;6.65;1.98;;;18.10;99.90;;;;;;5099638;28;20068;-70
2023/09/13 13:06:31;;;;;;;15.32;2.30;;;16.40;99.90;;;;;;5099263;28;20067;-70
2023/09/13 13:09:09;;;;;;;12.05;2.83;;;16.60;99.90;;;;;;5099378;28;20518;-70
2023/09/13 13:11:42;;;;;;;11.63;2.22;;;17.70;99.90;;;;;;5099344;28;20040;-70
2023/09/13 13:14:15;;;;;;;8.23;2.00;;;17.60;99.90;;;;;;5082644;28;20036;-71
2023/09/13 13:16:43;;;;;;;8.35;1.90;;;17.30;99.90;;;;;;5099186;28;20055;-69